Time;durP1;ratioP1;P1;durP2;ratioP2;P2;SDS_P1;SDS_P2;PMS_P1;PMS_P2;Temp;Humidity;BMP_temperature;BMP_pressure;BME280_temperature;BME280_humidity;BME280_pressure;Samples;Min_cycle;Max_cycle;Signal;HPM_P1;HPM_P2
2021/08/30 00:02:08;;;;;;;26.03;17.63;;;;;;;;;;2627701;30;20462;-78
2021/08/30 00:04:34;;;;;;;25.90;16.00;;;;;;;;;;2626481;30;20915;-77
2021/08/30 00:07:01;;;;;;;22.80;18.47;;;;;;;;;;2623821;38;20407;-78
2021/08/30 00:09:28;;;;;;;24.97;17.10;;;;;;;;;;2624326;30;20370;-77
2021/08/30 00:11:54;;;;;;;20.10;15.97;;;;;;;;;;2624033;38;20403;-78
2021/08/30 00:14:20;;;;;;;23.90;18.90;;;;;;;;;;2624304;38;20422;-77
2021/08/30 00:16:46;;;;;;;23.20;17.57;;;;;;;;;;2624163;30;20436;-78
2021/08/30 00:19:12;;;;;;;25.80;18.63;;;;;;;;;;2624682;38;20529;-77
2021/08/30 00:21:38;;;;;;;24.47;17.73;;;;;;;;;;2624845;30;20426;-77
2021/08/30 00:24:05;;;;;;;24.83;18.90;;;;;;;;;;2623945;38;20373;-78
2021/08/30 00:26:31;;;;;;;24.90;16.80;;;;;;;;;;2624445;30;21176;-76
2021/08/30 00:28:57;;;;;;;26.67;19.10;;;;;;;;;;2623612;38;20400;-77
2021/08/30 00:31:26;;;;;;;24.30;18.00;;;;;;;;;;2624384;30;20413;-77
2021/08/30 00:33:52;;;;;;;30.30;18.47;;;;;;;;;;2623927;38;21355;-77
2021/08/30 00:36:18;;;;;;;23.23;17.83;;;;;;;;;;2624160;30;20382;-77
2021/08/30 00:38:44;;;;;;;29.33;19.50;;;;;;;;;;2625571;38;20408;-77
2021/08/30 00:41:10;;;;;;;23.00;17.00;;;;;;;;;;2625705;38;20373;-77
2021/08/30 00:43:36;;;;;;;26.00;19.30;;;;;;;;;;2623802;30;20351;-77
2021/08/30 00:46:02;;;;;;;21.00;16.97;;;;;;;;;;2624202;38;20385;-79
2021/08/30 00:48:28;;;;;;;22.20;17.47;;;;;;;;;;2624269;38;20432;-78
2021/08/30 00:50:55;;;;;;;26.30;18.33;;;;;;;;;;2624487;38;20422;-78
2021/08/30 00:53:21;;;;;;;23.50;17.90;;;;;;;;;;2625530;38;21490;-77
2021/08/30 00:55:47;;;;;;;27.77;18.70;;;;;;;;;;2625892;30;20350;-76
2021/08/30 00:58:14;;;;;;;28.40;18.60;;;;;;;;;;2625864;30;20362;-77
2021/08/30 01:00:40;;;;;;;29.20;17.87;;;;;;;;;;2626309;30;20381;-76
2021/08/30 01:03:06;;;;;;;23.13;18.53;;;;;;;;;;2624287;30;20392;-77
2021/08/30 01:05:32;;;;;;;27.37;18.37;;;;;;;;;;2625185;30;20472;-77
2021/08/30 01:08:17;;;;;;;23.17;17.80;;;;;;;;;;2624285;38;20381;-77
2021/08/30 01:10:46;;;;;;;28.63;17.60;;;;;;;;;;2626728;30;20859;-77
2021/08/30 01:13:14;;;;;;;25.70;17.80;;;;;;;;;;2624131;30;21033;-77
2021/08/30 01:15:44;;;;;;;24.43;19.43;;;;;;;;;;2624335;30;20373;-77
2021/08/30 01:18:14;;;;;;;25.73;17.43;;;;;;;;;;2623551;38;20781;-77
2021/08/30 01:20:43;;;;;;;27.07;19.37;;;;;;;;;;2625126;30;20466;-77
2021/08/30 01:23:10;;;;;;;24.53;17.87;;;;;;;;;;2626409;38;20414;-77
2021/08/30 01:25:36;;;;;;;24.97;19.00;;;;;;;;;;2625567;30;20402;-77
2021/08/30 01:28:04;;;;;;;24.93;19.03;;;;;;;;;;2625168;38;20518;-78
2021/08/30 01:30:31;;;;;;;25.13;19.37;;;;;;;;;;2624704;38;20375;-77
2021/08/30 01:32:57;;;;;;;26.53;19.90;;;;;;;;;;2625063;38;20351;-77
2021/08/30 01:35:25;;;;;;;24.60;17.30;;;;;;;;;;2625890;30;21046;-77
2021/08/30 01:37:53;;;;;;;27.13;18.37;;;;;;;;;;2627717;30;20843;-77
2021/08/30 01:40:20;;;;;;;30.37;19.73;;;;;;;;;;2625145;38;20355;-77
2021/08/30 01:42:47;;;;;;;21.73;17.43;;;;;;;;;;2623657;38;20429;-77
2021/08/30 01:45:15;;;;;;;27.10;18.87;;;;;;;;;;2623943;38;20370;-77
2021/08/30 01:47:43;;;;;;;26.47;18.67;;;;;;;;;;2627707;30;20373;-77
2021/08/30 01:50:10;;;;;;;24.33;18.93;;;;;;;;;;2627311;30;20362;-77
2021/08/30 01:52:37;;;;;;;27.83;18.47;;;;;;;;;;2625712;30;21523;-77
2021/08/30 01:55:12;;;;;;;28.60;19.77;;;;;;;;;;2624224;38;20495;-77
2021/08/30 02:03:10;;;;;;;29.13;20.33;;;;;;;;;;2625401;30;20353;-77
2021/08/30 02:05:36;;;;;;;26.20;19.37;;;;;;;;;;2625389;38;21217;-77
2021/08/30 02:08:02;;;;;;;22.77;17.13;;;;;;;;;;2625257;38;21352;-77
2021/08/30 02:10:28;;;;;;;22.00;17.73;;;;;;;;;;2624852;30;20417;-77
2021/08/30 02:12:54;;;;;;;23.37;17.73;;;;;;;;;;2627523;30;20363;-77
2021/08/30 02:15:20;;;;;;;21.50;18.27;;;;;;;;;;2625343;30;20605;-77
2021/08/30 02:17:48;;;;;;;22.27;17.73;;;;;;;;;;2626165;30;21183;-76
2021/08/30 02:20:18;;;;;;;25.47;18.80;;;;;;;;;;2625289;30;20923;-77
2021/08/30 02:22:44;;;;;;;28.47;20.93;;;;;;;;;;2625542;30;20407;-77
2021/08/30 02:25:13;;;;;;;22.30;17.70;;;;;;;;;;2623161;38;20385;-78
2021/08/30 02:27:42;;;;;;;24.93;19.17;;;;;;;;;;2625798;30;20860;-78
2021/08/30 02:30:14;;;;;;;28.23;18.00;;;;;;;;;;2624735;30;20385;-78
2021/08/30 02:32:41;;;;;;;23.73;19.30;;;;;;;;;;2625583;31;20374;-78
2021/08/30 02:35:09;;;;;;;26.00;19.20;;;;;;;;;;2623743;38;20379;-78
2021/08/30 02:37:37;;;;;;;23.10;18.17;;;;;;;;;;2625056;30;20351;-78
2021/08/30 02:40:04;;;;;;;29.27;19.60;;;;;;;;;;2627232;30;20906;-78
2021/08/30 02:42:32;;;;;;;21.33;18.50;;;;;;;;;;2624701;38;20384;-78
2021/08/30 02:44:59;;;;;;;32.87;20.50;;;;;;;;;;2627072;30;20414;-78
2021/08/30 02:47:25;;;;;;;25.90;18.20;;;;;;;;;;2624797;30;20365;-78
2021/08/30 02:49:52;;;;;;;30.17;18.50;;;;;;;;;;2625486;38;20352;-77
2021/08/30 02:52:19;;;;;;;30.90;19.33;;;;;;;;;;2626026;30;20378;-77
2021/08/30 02:54:46;;;;;;;26.10;19.60;;;;;;;;;;2625325;38;20917;-77
2021/08/30 02:57:13;;;;;;;24.60;19.00;;;;;;;;;;2625930;38;20359;-77
2021/08/30 02:59:39;;;;;;;26.23;20.37;;;;;;;;;;2625059;38;20359;-77
2021/08/30 03:02:05;;;;;;;24.33;19.37;;;;;;;;;;2623141;38;20425;-77
2021/08/30 03:04:32;;;;;;;25.50;19.70;;;;;;;;;;2625541;30;20406;-77
2021/08/30 03:06:58;;;;;;;26.97;19.77;;;;;;;;;;2625183;30;20418;-77
2021/08/30 03:09:24;;;;;;;26.80;20.77;;;;;;;;;;2627315;30;20370;-77
2021/08/30 03:11:52;;;;;;;28.87;19.70;;;;;;;;;;2625075;30;20436;-77
2021/08/30 03:14:20;;;;;;;27.57;20.90;;;;;;;;;;2625045;38;20525;-76
2021/08/30 03:16:46;;;;;;;30.60;21.53;;;;;;;;;;2623106;38;21200;-78
2021/08/30 03:19:14;;;;;;;22.83;19.70;;;;;;;;;;2623881;38;21009;-78
2021/08/30 03:21:40;;;;;;;24.00;21.10;;;;;;;;;;2623488;38;20498;-77
2021/08/30 03:24:07;;;;;;;27.17;19.43;;;;;;;;;;2625920;30;20381;-78
2021/08/30 03:26:35;;;;;;;22.43;18.83;;;;;;;;;;2624755;30;21671;-78
2021/08/30 03:29:01;;;;;;;23.17;19.23;;;;;;;;;;2626559;30;21153;-78
2021/08/30 03:31:28;;;;;;;25.97;20.07;;;;;;;;;;2624566;38;20409;-78
2021/08/30 03:33:55;;;;;;;26.33;20.50;;;;;;;;;;2627548;30;20353;-77
2021/08/30 03:36:21;;;;;;;28.23;19.83;;;;;;;;;;2625209;38;21913;-78
2021/08/30 03:38:48;;;;;;;24.90;19.37;;;;;;;;;;2626251;30;21306;-78
2021/08/30 03:41:15;;;;;;;29.93;22.27;;;;;;;;;;2625310;30;20394;-78
2021/08/30 03:43:42;;;;;;;30.30;22.47;;;;;;;;;;2627665;30;20967;-78
2021/08/30 03:46:08;;;;;;;30.20;21.50;;;;;;;;;;2624517;38;20378;-78
2021/08/30 03:48:35;;;;;;;27.30;22.30;;;;;;;;;;2624243;38;20576;-78
2021/08/30 03:51:01;;;;;;;32.33;21.67;;;;;;;;;;2625881;30;20386;-78
2021/08/30 03:53:29;;;;;;;26.57;22.07;;;;;;;;;;2626036;30;20379;-78
2021/08/30 03:55:57;;;;;;;29.40;21.90;;;;;;;;;;2624668;30;20428;-78
2021/08/30 03:58:23;;;;;;;30.60;23.77;;;;;;;;;;2624253;38;20600;-78
2021/08/30 04:00:50;;;;;;;25.67;20.80;;;;;;;;;;2624433;38;20389;-78
2021/08/30 04:03:17;;;;;;;28.60;22.37;;;;;;;;;;2624886;38;20984;-78
2021/08/30 04:05:44;;;;;;;29.37;22.47;;;;;;;;;;2624989;38;20375;-78
2021/08/30 04:08:10;;;;;;;27.10;21.93;;;;;;;;;;2626664;30;21026;-78
2021/08/30 04:10:37;;;;;;;28.87;22.40;;;;;;;;;;2625678;38;20374;-78
2021/08/30 04:13:03;;;;;;;30.30;22.97;;;;;;;;;;2626954;30;20359;-78
2021/08/30 04:15:33;;;;;;;26.80;21.00;;;;;;;;;;2624431;30;20418;-78
2021/08/30 04:17:59;;;;;;;27.50;22.97;;;;;;;;;;2623560;38;20390;-78
2021/08/30 04:20:26;;;;;;;29.63;22.37;;;;;;;;;;2623005;38;20374;-78
2021/08/30 04:22:52;;;;;;;29.57;23.13;;;;;;;;;;2625370;38;20353;-78
2021/08/30 04:25:18;;;;;;;25.83;21.80;;;;;;;;;;2628732;30;20355;-77
2021/08/30 04:27:44;;;;;;;26.77;22.03;;;;;;;;;;2625357;30;20365;-78
2021/08/30 04:30:10;;;;;;;30.50;22.43;;;;;;;;;;2624340;30;20373;-78
2021/08/30 04:32:37;;;;;;;27.47;21.20;;;;;;;;;;2624353;38;20400;-77
2021/08/30 04:35:05;;;;;;;28.60;22.33;;;;;;;;;;2623414;38;20375;-78
2021/08/30 04:37:31;;;;;;;29.87;25.20;;;;;;;;;;2624452;38;20436;-78
2021/08/30 04:39:57;;;;;;;30.57;23.20;;;;;;;;;;2624176;38;20383;-78
2021/08/30 04:42:23;;;;;;;30.20;23.00;;;;;;;;;;2625304;30;20365;-77
2021/08/30 04:44:52;;;;;;;31.83;21.93;;;;;;;;;;2627938;30;20382;-78
2021/08/30 04:47:18;;;;;;;31.60;24.80;;;;;;;;;;2624041;30;20523;-78
2021/08/30 04:49:45;;;;;;;28.53;22.90;;;;;;;;;;2625698;30;20385;-77
2021/08/30 04:52:11;;;;;;;29.13;22.77;;;;;;;;;;2623692;30;20478;-77
2021/08/30 04:54:37;;;;;;;33.60;23.80;;;;;;;;;;2624213;30;20420;-77
2021/08/30 04:57:03;;;;;;;33.60;22.57;;;;;;;;;;2622977;30;20406;-78
2021/08/30 04:59:29;;;;;;;28.47;21.87;;;;;;;;;;2623752;38;20379;-78
2021/08/30 05:01:55;;;;;;;29.77;22.90;;;;;;;;;;2623350;38;20428;-78
2021/08/30 05:04:21;;;;;;;33.17;23.33;;;;;;;;;;2626667;30;21238;-78
2021/08/30 05:06:47;;;;;;;35.27;24.17;;;;;;;;;;2624621;30;20398;-78
2021/08/30 05:09:13;;;;;;;32.80;23.87;;;;;;;;;;2626020;30;20393;-78
2021/08/30 05:11:39;;;;;;;28.47;21.97;;;;;;;;;;2627548;38;20950;-78
2021/08/30 05:14:05;;;;;;;33.03;23.00;;;;;;;;;;2624724;30;20381;-78
2021/08/30 05:16:31;;;;;;;33.30;22.37;;;;;;;;;;2626256;38;20418;-77
2021/08/30 05:18:57;;;;;;;26.93;23.80;;;;;;;;;;2626336;30;21290;-77
2021/08/30 05:21:23;;;;;;;30.30;23.17;;;;;;;;;;2624327;30;20363;-76
2021/08/30 05:23:49;;;;;;;34.13;25.47;;;;;;;;;;2624977;30;20361;-76
2021/08/30 05:26:16;;;;;;;30.80;23.70;;;;;;;;;;2625622;30;20374;-76
2021/08/30 05:28:42;;;;;;;28.67;23.70;;;;;;;;;;2624376;30;20382;-76
2021/08/30 05:31:08;;;;;;;31.77;23.50;;;;;;;;;;2625270;38;20392;-77
2021/08/30 05:33:36;;;;;;;37.87;26.00;;;;;;;;;;2623643;30;20965;-77
2021/08/30 05:36:02;;;;;;;40.77;26.50;;;;;;;;;;2623228;38;20387;-77
2021/08/30 05:38:28;;;;;;;32.40;24.27;;;;;;;;;;2623901;38;20391;-77
2021/08/30 05:40:54;;;;;;;38.13;27.97;;;;;;;;;;2627053;30;21188;-77
2021/08/30 05:43:20;;;;;;;39.90;27.07;;;;;;;;;;2623638;30;20407;-77
2021/08/30 05:45:46;;;;;;;33.63;25.10;;;;;;;;;;2621168;30;20389;-77
2021/08/30 05:48:12;;;;;;;36.33;25.47;;;;;;;;;;2621894;30;20454;-77
2021/08/30 05:50:38;;;;;;;33.87;23.97;;;;;;;;;;2621617;30;20402;-77
2021/08/30 05:53:08;;;;;;;29.60;23.40;;;;;;;;;;2621651;38;20389;-78
2021/08/30 05:55:35;;;;;;;32.67;24.50;;;;;;;;;;2621866;38;20388;-77
2021/08/30 05:58:09;;;;;;;33.57;24.77;;;;;;;;;;2622924;38;20601;-79
2021/08/30 06:00:52;;;;;;;37.27;28.07;;;;;;;;;;2622225;30;21586;-80
2021/08/30 06:03:19;;;;;;;34.90;27.47;;;;;;;;;;2620740;38;20389;-77
2021/08/30 06:05:45;;;;;;;34.93;24.70;;;;;;;;;;2620580;38;20437;-78
2021/08/30 06:08:11;;;;;;;43.00;28.67;;;;;;;;;;2620953;30;20949;-77
2021/08/30 06:10:37;;;;;;;35.50;26.10;;;;;;;;;;2622231;38;20520;-77
2021/08/30 06:13:03;;;;;;;39.23;27.57;;;;;;;;;;2620266;30;20378;-78
2021/08/30 06:15:29;;;;;;;33.90;26.20;;;;;;;;;;2620476;38;20408;-77
2021/08/30 06:17:55;;;;;;;36.93;26.37;;;;;;;;;;2620573;30;20430;-77
2021/08/30 06:20:22;;;;;;;28.10;23.40;;;;;;;;;;2620449;30;20424;-77
2021/08/30 06:22:48;;;;;;;30.80;24.43;;;;;;;;;;2622275;38;20407;-77
2021/08/30 06:25:14;;;;;;;38.00;27.00;;;;;;;;;;2620437;38;21445;-77
2021/08/30 06:27:40;;;;;;;33.30;24.40;;;;;;;;;;2620267;30;20425;-77
2021/08/30 06:30:07;;;;;;;32.67;25.03;;;;;;;;;;2620500;30;20402;-77
2021/08/30 06:32:33;;;;;;;34.13;25.40;;;;;;;;;;2622141;30;21384;-78
2021/08/30 06:34:59;;;;;;;28.80;22.77;;;;;;;;;;2621412;30;20379;-77
